^^
Station Historical Data
Daily Summary for February 24, 2017 Units:  Both    English   Metric
« Previous Day
Next Day »
Daily Weekly Monthly Yearly Custom
  High: Low: Average:
Temperature: 86.4 °F /  30.2 °C 62.8 °F /  17.1 °C 73.3 °F /  22.9 °C
Dew Point: 53.4 °F /  11.9 °C 43.3 °F /  6.3 °C 49.6 °F /  9.8 °C
Humidity: 70% 24% 46%
Wind Speed: 8.9mph /  14.3km/h - 1.6mph /  2.6km/h
Wind Gust: 14.0mph /  22.5km/h - -
Wind- - SSE
Pressure: 29.79 in /  1008.7 hPa 29.69 in /  1005.3 hPa -
Precipitation: 0.00 in /  0 mm    
Historical Graphs
 
 
Tabular Data for February 24, 2017
Time Temperature Dew Point Pressure Wind Wind Speed Wind Gust Humidity Rainfall Rate (Hourly) solar Conditions
00:02 66.6 °F /  19.2 °C 53.1 °F /  11.7 °C 29.78in /  1008.4hPa Calm   1.0mph /  1.6km/h 62% 0.00in /  0mm 0.0 W/m2
00:08 66.4 °F /  19.1 °C 52.9 °F /  11.6 °C 29.78in /  1008.4hPa Calm   1.0mph /  1.6km/h 62% 0.00in /  0mm 0.0 W/m2
00:14 66.0 °F /  18.9 °C 53.1 °F /  11.7 °C 29.78in /  1008.4hPa Calm   1.0mph /  1.6km/h 63% 0.00in /  0mm 0.0 W/m2
00:20 66.0 °F /  18.9 °C 53.1 °F /  11.7 °C 29.77in /  1008hPa Calm   3.0mph /  4.8km/h 63% 0.00in /  0mm 0.0 W/m2
00:26 65.7 °F /  18.7 °C 52.7 °F /  11.5 °C 29.77in /  1008hPa Calm   2.0mph /  3.2km/h 63% 0.00in /  0mm 0.0 W/m2
00:32 65.7 °F /  18.7 °C 53.2 °F /  11.8 °C 29.77in /  1008hPa Calm   3.0mph /  4.8km/h 64% 0.00in /  0mm 0.0 W/m2
00:38 65.5 °F /  18.6 °C 53.1 °F /  11.7 °C 29.77in /  1008hPa SE 0.9mph /  1.4km/h 3.0mph /  4.8km/h 64% 0.00in /  0mm 0.0 W/m2
00:44 65.5 °F /  18.6 °C 53.4 °F /  11.9 °C 29.77in /  1008hPa SSE 0.9mph /  1.4km/h 3.0mph /  4.8km/h 65% 0.00in /  0mm 0.0 W/m2
00:50 65.3 °F /  18.5 °C 53.2 °F /  11.8 °C 29.77in /  1008hPa Calm   3.0mph /  4.8km/h 65% 0.00in /  0mm 0.0 W/m2
00:56 65.1 °F /  18.4 °C 53.1 °F /  11.7 °C 29.77in /  1008hPa SSE 2.0mph /  3.2km/h 2.0mph /  3.2km/h 65% 0.00in /  0mm 0.0 W/m2
01:02 65.1 °F /  18.4 °C 52.7 °F /  11.5 °C 29.77in /  1008hPa Calm     64% 0.00in /  0mm 0.0 W/m2
01:08 65.1 °F /  18.4 °C 52.7 °F /  11.5 °C 29.76in /  1007.7hPa Calm   3.0mph /  4.8km/h 64% 0.00in /  0mm 0.0 W/m2
01:14 65.1 °F /  18.4 °C 52.7 °F /  11.5 °C 29.77in /  1008hPa Calm   1.0mph /  1.6km/h 64% 0.00in /  0mm 0.0 W/m2
01:20 65.5 °F /  18.6 °C 52.5 °F /  11.4 °C 29.76in /  1007.7hPa Calm     63% 0.00in /  0mm 0.0 W/m2
01:26 65.5 °F /  18.6 °C 52.5 °F /  11.4 °C 29.76in /  1007.7hPa East 2.0mph /  3.2km/h 8.0mph /  12.9km/h 63% 0.00in /  0mm 0.0 W/m2
01:32 65.5 °F /  18.6 °C 52.2 °F /  11.2 °C 29.76in /  1007.7hPa SE 2.9mph /  4.7km/h 7.0mph /  11.3km/h 62% 0.00in /  0mm 0.0 W/m2
01:38 65.5 °F /  18.6 °C 52.2 °F /  11.2 °C 29.76in /  1007.7hPa SSE 0.9mph /  1.4km/h 9.0mph /  14.5km/h 62% 0.00in /  0mm 0.0 W/m2
01:44 65.7 °F /  18.7 °C 52.3 °F /  11.3 °C 29.76in /  1007.7hPa SSE 0.9mph /  1.4km/h 3.0mph /  4.8km/h 62% 0.00in /  0mm 0.0 W/m2
01:50 65.7 °F /  18.7 °C 52.3 °F /  11.3 °C 29.75in /  1007.3hPa SSE 2.9mph /  4.7km/h 6.0mph /  9.7km/h 62% 0.00in /  0mm 0.0 W/m2
01:57 65.7 °F /  18.7 °C 52.3 °F /  11.3 °C 29.75in /  1007.3hPa Calm   2.0mph /  3.2km/h 62% 0.00in /  0mm 0.0 W/m2
02:03 65.7 °F /  18.7 °C 52.7 °F /  11.5 °C 29.75in /  1007.3hPa South 2.0mph /  3.2km/h 5.0mph /  8km/h 63% 0.00in /  0mm 0.0 W/m2
02:09 65.7 °F /  18.7 °C 52.3 °F /  11.3 °C 29.75in /  1007.3hPa SSW 0.9mph /  1.4km/h 5.0mph /  8km/h 62% 0.00in /  0mm 0.0 W/m2
02:15 65.7 °F /  18.7 °C 52.7 °F /  11.5 °C 29.75in /  1007.3hPa SE 2.0mph /  3.2km/h 4.0mph /  6.4km/h 63% 0.00in /  0mm 0.0 W/m2
02:21 65.7 °F /  18.7 °C 52.7 °F /  11.5 °C 29.75in /  1007.3hPa Calm   2.0mph /  3.2km/h 63% 0.00in /  0mm 0.0 W/m2
02:27 65.7 °F /  18.7 °C 52.7 °F /  11.5 °C 29.75in /  1007.3hPa South 0.9mph /  1.4km/h 5.0mph /  8km/h 63% 0.00in /  0mm 0.0 W/m2
02:33 65.7 °F /  18.7 °C 52.7 °F /  11.5 °C 29.75in /  1007.3hPa Calm   1.0mph /  1.6km/h 63% 0.00in /  0mm 0.0 W/m2
02:39 65.5 °F /  18.6 °C 52.5 °F /  11.4 °C 29.75in /  1007.3hPa Calm   1.0mph /  1.6km/h 63% 0.00in /  0mm 0.0 W/m2
02:45 65.5 °F /  18.6 °C 52.5 °F /  11.4 °C 29.74in /  1007hPa Calm   2.0mph /  3.2km/h 63% 0.00in /  0mm 0.0 W/m2
02:51 65.3 °F /  18.5 °C 52.9 °F /  11.6 °C 29.74in /  1007hPa SSE 2.0mph /  3.2km/h 3.0mph /  4.8km/h 64% 0.00in /  0mm 0.0 W/m2
02:57 65.1 °F /  18.4 °C 52.7 °F /  11.5 °C 29.74in /  1007hPa Calm   1.0mph /  1.6km/h 64% 0.00in /  0mm 0.0 W/m2
03:03 65.1 °F /  18.4 °C 53.1 °F /  11.7 °C 29.74in /  1007hPa SSW 0.9mph /  1.4km/h 1.0mph /  1.6km/h 65% 0.00in /  0mm 0.0 W/m2
03:09 65.1 °F /  18.4 °C 52.7 °F /  11.5 °C 29.74in /  1007hPa Calm   1.0mph /  1.6km/h 64% 0.00in /  0mm 0.0 W/m2
03:15 64.9 °F /  18.3 °C 52.5 °F /  11.4 °C 29.73in /  1006.7hPa Calm   2.0mph /  3.2km/h 64% 0.00in /  0mm 0.0 W/m2
03:21 64.9 °F /  18.3 °C 52.9 °F /  11.6 °C 29.73in /  1006.7hPa Calm   2.0mph /  3.2km/h 65% 0.00in /  0mm 0.0 W/m2
03:27 64.8 °F /  18.2 °C 52.7 °F /  11.5 °C 29.73in /  1006.7hPa Calm     65% 0.00in /  0mm 0.0 W/m2
03:34 64.6 °F /  18.1 °C 52.9 °F /  11.6 °C 29.73in /  1006.7hPa Calm   2.0mph /  3.2km/h 66% 0.00in /  0mm 0.0 W/m2
03:40 64.4 °F /  18 °C 52.9 °F /  11.6 °C 29.73in /  1006.7hPa Calm   1.0mph /  1.6km/h 66% 0.00in /  0mm 0.0 W/m2
03:46 64.2 °F /  17.9 °C 52.7 °F /  11.5 °C 29.73in /  1006.7hPa Calm     66% 0.00in /  0mm 0.0 W/m2
03:52 64.2 °F /  17.9 °C 52.7 °F /  11.5 °C 29.72in /  1006.3hPa Calm   2.0mph /  3.2km/h 66% 0.00in /  0mm 0.0 W/m2
03:58 64.2 °F /  17.9 °C 53.1 °F /  11.7 °C 29.72in /  1006.3hPa Calm     67% 0.00in /  0mm 0.0 W/m2
04:04 64.0 °F /  17.8 °C 52.9 °F /  11.6 °C 29.72in /  1006.3hPa WSW 2.0mph /  3.2km/h 3.0mph /  4.8km/h 67% 0.00in /  0mm 0.0 W/m2
04:10 64.0 °F /  17.8 °C 52.9 °F /  11.6 °C 29.72in /  1006.3hPa Calm     67% 0.00in /  0mm 0.0 W/m2
04:17 64.0 °F /  17.8 °C 52.9 °F /  11.6 °C 29.72in /  1006.3hPa Calm     67% 0.00in /  0mm 0.0 W/m2
04:23 63.9 °F /  17.7 °C 52.7 °F /  11.5 °C 29.72in /  1006.3hPa Calm   1.0mph /  1.6km/h 67% 0.00in /  0mm 0.0 W/m2
04:29 63.7 °F /  17.6 °C 52.9 °F /  11.6 °C 29.72in /  1006.3hPa Calm   1.0mph /  1.6km/h 68% 0.00in /  0mm 0.0 W/m2
04:35 63.7 °F /  17.6 °C 52.9 °F /  11.6 °C 29.72in /  1006.3hPa Calm     68% 0.00in /  0mm 0.0 W/m2
04:42 63.3 °F /  17.4 °C 53.1 °F /  11.7 °C 29.72in /  1006.3hPa Calm   2.0mph /  3.2km/h 69% 0.00in /  0mm 0.0 W/m2
04:47 63.1 °F /  17.3 °C 52.9 °F /  11.6 °C 29.72in /  1006.3hPa NW 0.9mph /  1.4km/h 1.0mph /  1.6km/h 69% 0.00in /  0mm 0.0 W/m2
04:53 63.0 °F /  17.2 °C 53.1 °F /  11.7 °C 29.72in /  1006.3hPa Calm   1.0mph /  1.6km/h 70% 0.00in /  0mm 0.0 W/m2
04:59 62.8 °F /  17.1 °C 52.9 °F /  11.6 °C 29.72in /  1006.3hPa Calm   3.0mph /  4.8km/h 70% 0.00in /  0mm 0.0 W/m2
05:05 62.8 °F /  17.1 °C 51.6 °F /  10.9 °C 29.72in /  1006.3hPa Calm   2.0mph /  3.2km/h 67% 0.00in /  0mm 0.0 W/m2
05:11 63.1 °F /  17.3 °C 51.6 °F /  10.9 °C 29.72in /  1006.3hPa NE 0.9mph /  1.4km/h 3.0mph /  4.8km/h 66% 0.00in /  0mm 0.0 W/m2
05:17 63.1 °F /  17.3 °C 52.0 °F /  11.1 °C 29.72in /  1006.3hPa Calm     67% 0.00in /  0mm 0.0 W/m2
05:23 63.1 °F /  17.3 °C 52.0 °F /  11.1 °C 29.72in /  1006.3hPa Calm     67% 0.00in /  0mm 0.0 W/m2
05:30 63.0 °F /  17.2 °C 51.4 °F /  10.8 °C 29.72in /  1006.3hPa Calm   5.0mph /  8km/h 66% 0.00in /  0mm 0.0 W/m2
05:36 63.1 °F /  17.3 °C 52.0 °F /  11.1 °C 29.72in /  1006.3hPa SE 2.9mph /  4.7km/h 3.0mph /  4.8km/h 67% 0.00in /  0mm 0.0 W/m2
05:38 63.1 °F /  17.3 °C 52.0 °F /  11.1 °C 29.72in /  1006.3hPa SE 0.9mph /  1.4km/h 3.0mph /  4.8km/h 67% 0.00in /  0mm 0.0 W/m2
05:44 63.1 °F /  17.3 °C 51.3 °F /  10.7 °C 29.72in /  1006.3hPa SE 4.0mph /  6.4km/h 5.0mph /  8km/h 65% 0.00in /  0mm 0.0 W/m2
05:50 63.7 °F /  17.6 °C 51.3 °F /  10.7 °C 29.72in /  1006.3hPa SSE 0.9mph /  1.4km/h 6.0mph /  9.7km/h 64% 0.00in /  0mm 0.0 W/m2
05:56 64.0 °F /  17.8 °C 51.3 °F /  10.7 °C 29.72in /  1006.3hPa SSE 8.1mph /  13km/h 9.0mph /  14.5km/h 63% 0.00in /  0mm 0.0 W/m2
06:02 64.8 °F /  18.2 °C 50.5 °F /  10.3 °C 29.72in /  1006.3hPa SSW 2.9mph /  4.7km/h 14.0mph /  22.5km/h 60% 0.00in /  0mm 0.0 W/m2
06:08 65.5 °F /  18.6 °C 50.7 °F /  10.4 °C 29.72in /  1006.3hPa South 2.9mph /  4.7km/h 7.0mph /  11.3km/h 59% 0.00in /  0mm 0.0 W/m2
06:14 65.8 °F /  18.8 °C 51.1 °F /  10.6 °C 29.72in /  1006.3hPa South 2.9mph /  4.7km/h 8.0mph /  12.9km/h 59% 0.00in /  0mm 0.0 W/m2
06:20 65.8 °F /  18.8 °C 50.7 °F /  10.4 °C 29.72in /  1006.3hPa ESE 4.0mph /  6.4km/h 8.0mph /  12.9km/h 58% 0.00in /  0mm 0.0 W/m2
06:26 65.8 °F /  18.8 °C 50.7 °F /  10.4 °C 29.72in /  1006.3hPa SE 4.9mph /  7.9km/h 8.0mph /  12.9km/h 58% 0.00in /  0mm 0.0 W/m2
06:32 65.8 °F /  18.8 °C 50.7 °F /  10.4 °C 29.72in /  1006.3hPa SSE 6.0mph /  9.7km/h 9.0mph /  14.5km/h 58% 0.00in /  0mm 0.0 W/m2
06:38 65.7 °F /  18.7 °C 50.5 °F /  10.3 °C 29.72in /  1006.3hPa SE 4.9mph /  7.9km/h 10.0mph /  16.1km/h 58% 0.00in /  0mm 0.0 W/m2
06:45 65.7 °F /  18.7 °C 50.5 °F /  10.3 °C 29.72in /  1006.3hPa South 2.9mph /  4.7km/h 8.0mph /  12.9km/h 58% 0.00in /  0mm 0.0 W/m2
06:51 65.7 °F /  18.7 °C 50.9 °F /  10.5 °C 29.72in /  1006.3hPa SSE 4.9mph /  7.9km/h 7.0mph /  11.3km/h 59% 0.00in /  0mm 5.0 W/m2
06:57 65.7 °F /  18.7 °C 50.9 °F /  10.5 °C 29.73in /  1006.7hPa SSE 2.0mph /  3.2km/h 6.0mph /  9.7km/h 59% 0.00in /  0mm 7.0 W/m2
07:03 65.5 °F /  18.6 °C 50.7 °F /  10.4 °C 29.73in /  1006.7hPa SSW 0.9mph /  1.4km/h 4.0mph /  6.4km/h 59% 0.00in /  0mm 11.0 W/m2
07:09 65.3 °F /  18.5 °C 51.1 °F /  10.6 °C 29.73in /  1006.7hPa SE 4.0mph /  6.4km/h 8.0mph /  12.9km/h 60% 0.00in /  0mm 12.0 W/m2
07:15 65.1 °F /  18.4 °C 50.9 °F /  10.5 °C 29.73in /  1006.7hPa SSE 2.0mph /  3.2km/h 6.0mph /  9.7km/h 60% 0.00in /  0mm 14.0 W/m2
07:21 65.1 °F /  18.4 °C 51.8 °F /  11 °C 29.74in /  1007hPa SE 2.0mph /  3.2km/h 2.0mph /  3.2km/h 62% 0.00in /  0mm 16.0 W/m2
07:28 64.9 °F /  18.3 °C 51.6 °F /  10.9 °C 29.74in /  1007hPa SSE 2.9mph /  4.7km/h 3.0mph /  4.8km/h 62% 0.00in /  0mm 18.0 W/m2
07:34 65.1 °F /  18.4 °C 51.8 °F /  11 °C 29.74in /  1007hPa SSE 0.9mph /  1.4km/h 2.0mph /  3.2km/h 62% 0.00in /  0mm 19.0 W/m2
07:40 65.3 °F /  18.5 °C 51.4 °F /  10.8 °C 29.74in /  1007hPa SSW 2.9mph /  4.7km/h 6.0mph /  9.7km/h 61% 0.00in /  0mm 21.0 W/m2
07:46 65.5 °F /  18.6 °C 51.6 °F /  10.9 °C 29.74in /  1007hPa Calm   1.0mph /  1.6km/h 61% 0.00in /  0mm 30.0 W/m2
07:52 65.7 °F /  18.7 °C 51.8 °F /  11 °C 29.75in /  1007.3hPa SSE 0.9mph /  1.4km/h 1.0mph /  1.6km/h 61% 0.00in /  0mm 23.0 W/m2
07:58 66.0 °F /  18.9 °C 51.8 °F /  11 °C 29.75in /  1007.3hPa SSE 0.9mph /  1.4km/h 5.0mph /  8km/h 60% 0.00in /  0mm 25.0 W/m2
08:04 66.4 °F /  19.1 °C 52.2 °F /  11.2 °C 29.75in /  1007.3hPa SE 2.0mph /  3.2km/h 3.0mph /  4.8km/h 60% 0.00in /  0mm 26.0 W/m2
08:10 66.7 °F /  19.3 °C 51.1 °F /  10.6 °C 29.75in /  1007.3hPa ESE 2.0mph /  3.2km/h 5.0mph /  8km/h 57% 0.00in /  0mm 28.0 W/m2
08:16 67.1 °F /  19.5 °C 51.4 °F /  10.8 °C 29.75in /  1007.3hPa Calm   1.0mph /  1.6km/h 57% 0.00in /  0mm 28.0 W/m2
08:22 67.5 °F /  19.7 °C 50.7 °F /  10.4 °C 29.76in /  1007.7hPa ESE 4.9mph /  7.9km/h 10.0mph /  16.1km/h 55% 0.00in /  0mm 30.0 W/m2
08:28 68.0 °F /  20 °C 50.7 °F /  10.4 °C 29.75in /  1007.3hPa SE 4.0mph /  6.4km/h 7.0mph /  11.3km/h 54% 0.00in /  0mm 30.0 W/m2
08:34 68.5 °F /  20.3 °C 51.3 °F /  10.7 °C 29.75in /  1007.3hPa SE 0.9mph /  1.4km/h 8.0mph /  12.9km/h 54% 0.00in /  0mm 32.0 W/m2
08:40 68.7 °F /  20.4 °C 50.9 °F /  10.5 °C 29.76in /  1007.7hPa SSE 8.9mph /  14.3km/h 9.0mph /  14.5km/h 53% 0.00in /  0mm 33.0 W/m2
08:47 69.3 °F /  20.7 °C 51.4 °F /  10.8 °C 29.76in /  1007.7hPa SE 2.0mph /  3.2km/h 5.0mph /  8km/h 53% 0.00in /  0mm 39.0 W/m2
08:53 69.4 °F /  20.8 °C 51.6 °F /  10.9 °C 29.76in /  1007.7hPa SSW 2.9mph /  4.7km/h 4.0mph /  6.4km/h 53% 0.00in /  0mm 53.0 W/m2
08:59 70.0 °F /  21.1 °C 51.6 °F /  10.9 °C 29.76in /  1007.7hPa SE 2.0mph /  3.2km/h 6.0mph /  9.7km/h 52% 0.00in /  0mm 512.0 W/m2
09:05 70.5 °F /  21.4 °C 51.4 °F /  10.8 °C 29.76in /  1007.7hPa ESE 4.9mph /  7.9km/h 5.0mph /  8km/h 51% 0.00in /  0mm 536.0 W/m2
09:11 71.4 °F /  21.9 °C 52.3 °F /  11.3 °C 29.76in /  1007.7hPa ESE 2.9mph /  4.7km/h 5.0mph /  8km/h 51% 0.00in /  0mm 561.0 W/m2
09:17 72.3 °F /  22.4 °C 50.4 °F /  10.2 °C 29.76in /  1007.7hPa SE 2.0mph /  3.2km/h 5.0mph /  8km/h 46% 0.00in /  0mm 584.0 W/m2
09:23 73.0 °F /  22.8 °C 50.4 °F /  10.2 °C 29.76in /  1007.7hPa East 4.0mph /  6.4km/h 4.0mph /  6.4km/h 45% 0.00in /  0mm 603.0 W/m2
09:30 73.8 °F /  23.2 °C 49.8 °F /  9.9 °C 29.76in /  1007.7hPa Calm     43% 0.00in /  0mm 624.0 W/m2
09:36 74.5 °F /  23.6 °C 49.3 °F /  9.6 °C 29.76in /  1007.7hPa East 4.0mph /  6.4km/h 4.0mph /  6.4km/h 41% 0.00in /  0mm 654.0 W/m2
09:42 75.4 °F /  24.1 °C 50.0 °F /  10 °C 29.76in /  1007.7hPa Calm   2.0mph /  3.2km/h 41% 0.00in /  0mm 675.0 W/m2
09:48 75.7 °F /  24.3 °C 49.6 °F /  9.8 °C 29.76in /  1007.7hPa SE 2.9mph /  4.7km/h 4.0mph /  6.4km/h 40% 0.00in /  0mm 693.0 W/m2
09:54 76.1 °F /  24.5 °C 50.0 °F /  10 °C 29.76in /  1007.7hPa East 2.0mph /  3.2km/h 2.0mph /  3.2km/h 40% 0.00in /  0mm 714.0 W/m2
10:00 76.6 °F /  24.8 °C 49.8 °F /  9.9 °C 29.76in /  1007.7hPa North 4.9mph /  7.9km/h 6.0mph /  9.7km/h 39% 0.00in /  0mm 733.0 W/m2
10:06 77.4 °F /  25.2 °C 50.5 °F /  10.3 °C 29.76in /  1007.7hPa Calm   4.0mph /  6.4km/h 39% 0.00in /  0mm 752.0 W/m2
10:12 77.7 °F /  25.4 °C 50.0 °F /  10 °C 29.76in /  1007.7hPa ESE 2.9mph /  4.7km/h 5.0mph /  8km/h 38% 0.00in /  0mm 772.0 W/m2
10:19 78.3 °F /  25.7 °C 50.5 °F /  10.3 °C 29.76in /  1007.7hPa East 0.9mph /  1.4km/h 6.0mph /  9.7km/h 38% 0.00in /  0mm 788.0 W/m2
10:25 78.3 °F /  25.7 °C 51.3 °F /  10.7 °C 29.76in /  1007.7hPa SSW 2.0mph /  3.2km/h 4.0mph /  6.4km/h 39% 0.00in /  0mm 802.0 W/m2
10:31 78.4 °F /  25.8 °C 50.0 °F /  10 °C 29.76in /  1007.7hPa SSE 2.9mph /  4.7km/h 6.0mph /  9.7km/h 37% 0.00in /  0mm 831.0 W/m2
10:37 79.0 °F /  26.1 °C 49.8 °F /  9.9 °C 29.76in /  1007.7hPa SE 4.9mph /  7.9km/h 5.0mph /  8km/h 36% 0.00in /  0mm 823.0 W/m2
10:43 79.2 °F /  26.2 °C 49.1 °F /  9.5 °C 29.76in /  1007.7hPa ESE 4.0mph /  6.4km/h 6.0mph /  9.7km/h 35% 0.00in /  0mm 860.0 W/m2
10:49 79.3 °F /  26.3 °C 48.6 °F /  9.2 °C 29.76in /  1007.7hPa South 2.9mph /  4.7km/h 7.0mph /  11.3km/h 34% 0.00in /  0mm 877.0 W/m2
10:55 79.9 °F /  26.6 °C 48.9 °F /  9.4 °C 29.76in /  1007.7hPa ENE 2.9mph /  4.7km/h 3.0mph /  4.8km/h 34% 0.00in /  0mm 895.0 W/m2
11:01 80.6 °F /  27 °C 48.9 °F /  9.4 °C 29.76in /  1007.7hPa ESE 0.9mph /  1.4km/h 6.0mph /  9.7km/h 33% 0.00in /  0mm 905.0 W/m2
11:07 81.0 °F /  27.2 °C 49.1 °F /  9.5 °C 29.75in /  1007.3hPa NNW 4.0mph /  6.4km/h 6.0mph /  9.7km/h 33% 0.00in /  0mm 919.0 W/m2
11:14 81.1 °F /  27.3 °C 49.3 °F /  9.6 °C 29.75in /  1007.3hPa Calm   9.0mph /  14.5km/h 33% 0.00in /  0mm 940.0 W/m2
11:20 81.5 °F /  27.5 °C 48.0 °F /  8.9 °C 29.75in /  1007.3hPa NE 4.0mph /  6.4km/h 7.0mph /  11.3km/h 31% 0.00in /  0mm 954.0 W/m2
11:26 81.9 °F /  27.7 °C 47.3 °F /  8.5 °C 29.75in /  1007.3hPa ENE 8.1mph /  13km/h 8.1mph /  13km/h 30% 0.00in /  0mm 983.0 W/m2
11:32 81.7 °F /  27.6 °C 46.4 °F /  8 °C 29.75in /  1007.3hPa SSE 2.9mph /  4.7km/h 5.0mph /  8km/h 29% 0.00in /  0mm 114.0 W/m2
11:38 80.8 °F /  27.1 °C 46.4 °F /  8 °C 29.75in /  1007.3hPa Calm   2.0mph /  3.2km/h 30% 0.00in /  0mm 165.0 W/m2
11:44 79.9 °F /  26.6 °C 44.8 °F /  7.1 °C 29.75in /  1007.3hPa Calm   2.0mph /  3.2km/h 29% 0.00in /  0mm 234.0 W/m2
11:50 79.5 °F /  26.4 °C 46.2 °F /  7.9 °C 29.75in /  1007.3hPa North 2.9mph /  4.7km/h 5.0mph /  8km/h 31% 0.00in /  0mm 255.0 W/m2
11:57 79.5 °F /  26.4 °C 47.1 °F /  8.4 °C 29.75in /  1007.3hPa NE 8.1mph /  13km/h 8.1mph /  13km/h 32% 0.00in /  0mm 403.0 W/m2
12:03 80.2 °F /  26.8 °C 46.0 °F /  7.8 °C 29.75in /  1007.3hPa East 4.9mph /  7.9km/h 7.0mph /  11.3km/h 30% 0.00in /  0mm 1209.0 W/m2
12:09 81.7 °F /  27.6 °C 45.3 °F /  7.4 °C 29.75in /  1007.3hPa ENE 4.9mph /  7.9km/h 7.0mph /  11.3km/h 28% 0.00in /  0mm 1230.0 W/m2
12:15 82.8 °F /  28.2 °C 45.3 °F /  7.4 °C 29.75in /  1007.3hPa ESE 2.0mph /  3.2km/h 4.0mph /  6.4km/h 27% 0.00in /  0mm 1229.0 W/m2
12:21 83.1 °F /  28.4 °C 44.6 °F /  7 °C 29.74in /  1007hPa NNW 0.9mph /  1.4km/h 2.0mph /  3.2km/h 26% 0.00in /  0mm 1199.0 W/m2
12:27 84.0 °F /  28.9 °C 43.3 °F /  6.3 °C 29.74in /  1007hPa Calm   4.0mph /  6.4km/h 24% 0.00in /  0mm 1164.0 W/m2
12:33 83.7 °F /  28.7 °C 45.1 °F /  7.3 °C 29.74in /  1007hPa Calm   1.0mph /  1.6km/h 26% 0.00in /  0mm 1199.0 W/m2
12:39 83.1 °F /  28.4 °C 45.7 °F /  7.6 °C 29.74in /  1007hPa East 4.9mph /  7.9km/h 6.0mph /  9.7km/h 27% 0.00in /  0mm 178.0 W/m2
12:46 82.2 °F /  27.9 °C 45.9 °F /  7.7 °C 29.74in /  1007hPa ESE 0.9mph /  1.4km/h 3.0mph /  4.8km/h 28% 0.00in /  0mm 190.0 W/m2
12:52 81.3 °F /  27.4 °C 46.9 °F /  8.3 °C 29.74in /  1007hPa Calm   1.0mph /  1.6km/h 30% 0.00in /  0mm 236.0 W/m2
12:58 80.8 °F /  27.1 °C 45.5 °F /  7.5 °C 29.74in /  1007hPa WSW 0.9mph /  1.4km/h 2.0mph /  3.2km/h 29% 0.00in /  0mm 288.0 W/m2
13:04 80.6 °F /  27 °C 47.1 °F /  8.4 °C 29.74in /  1007hPa North 2.0mph /  3.2km/h 5.0mph /  8km/h 31% 0.00in /  0mm 1211.0 W/m2
13:10 81.7 °F /  27.6 °C 45.3 °F /  7.4 °C 29.74in /  1007hPa NE 2.0mph /  3.2km/h 5.0mph /  8km/h 28% 0.00in /  0mm 1160.0 W/m2
13:16 82.8 °F /  28.2 °C 46.4 °F /  8 °C 29.74in /  1007hPa NNE 2.0mph /  3.2km/h 5.0mph /  8km/h 28% 0.00in /  0mm 1139.0 W/m2
13:22 82.9 °F /  28.3 °C 45.5 °F /  7.5 °C 29.73in /  1006.7hPa Calm   5.0mph /  8km/h 27% 0.00in /  0mm 186.0 W/m2
13:37 81.9 °F /  27.7 °C 45.5 °F /  7.5 °C 29.73in /  1006.7hPa SW 0.9mph /  1.4km/h 1.0mph /  1.6km/h 28% 0.00in /  0mm 1134.0 W/m2
14:04 83.7 °F /  28.7 °C 45.1 °F /  7.3 °C 29.72in /  1006.3hPa NNW 0.9mph /  1.4km/h 8.0mph /  12.9km/h 26% 0.00in /  0mm 1123.0 W/m2
14:09 84.0 °F /  28.9 °C 45.5 °F /  7.5 °C 29.72in /  1006.3hPa NNW 0.9mph /  1.4km/h 4.0mph /  6.4km/h 26% 0.00in /  0mm 209.0 W/m2
14:15 83.8 °F /  28.8 °C 45.3 °F /  7.4 °C 29.72in /  1006.3hPa Calm   2.0mph /  3.2km/h 26% 0.00in /  0mm 229.0 W/m2
14:21 84.4 °F /  29.1 °C 45.7 °F /  7.6 °C 29.72in /  1006.3hPa NNW 2.0mph /  3.2km/h 8.0mph /  12.9km/h 26% 0.00in /  0mm 1121.0 W/m2
14:27 85.1 °F /  29.5 °C 46.4 °F /  8 °C 29.72in /  1006.3hPa NNE 4.0mph /  6.4km/h 6.0mph /  9.7km/h 26% 0.00in /  0mm 1107.0 W/m2
14:33 85.6 °F /  29.8 °C 45.9 °F /  7.7 °C 29.71in /  1006hPa NE 2.9mph /  4.7km/h 5.0mph /  8km/h 25% 0.00in /  0mm 1092.0 W/m2
14:40 86.2 °F /  30.1 °C 45.1 °F /  7.3 °C 29.71in /  1006hPa ESE 4.0mph /  6.4km/h 4.0mph /  6.4km/h 24% 0.00in /  0mm 1074.0 W/m2
14:46 86.4 °F /  30.2 °C 45.3 °F /  7.4 °C 29.71in /  1006hPa WSW 2.9mph /  4.7km/h 7.0mph /  11.3km/h 24% 0.00in /  0mm 1062.0 W/m2
14:54 84.7 °F /  29.3 °C 45.0 °F /  7.2 °C 29.71in /  1006hPa SW 0.9mph /  1.4km/h 5.0mph /  8km/h 25% 0.00in /  0mm 1067.0 W/m2
15:01 84.0 °F /  28.9 °C 44.4 °F /  6.9 °C 29.71in /  1006hPa SSW 0.9mph /  1.4km/h 3.0mph /  4.8km/h 25% 0.00in /  0mm 243.0 W/m2
15:06 83.1 °F /  28.4 °C 43.7 °F /  6.5 °C 29.70in /  1005.6hPa Calm   2.0mph /  3.2km/h 25% 0.00in /  0mm 262.0 W/m2
15:12 83.1 °F /  28.4 °C 44.6 °F /  7 °C 29.70in /  1005.6hPa Calm   2.0mph /  3.2km/h 26% 0.00in /  0mm 1044.0 W/m2
15:18 83.8 °F /  28.8 °C 46.2 °F /  7.9 °C 29.70in /  1005.6hPa Calm   2.0mph /  3.2km/h 27% 0.00in /  0mm 670.0 W/m2
15:24 84.6 °F /  29.2 °C 45.9 °F /  7.7 °C 29.70in /  1005.6hPa WSW 2.0mph /  3.2km/h 2.0mph /  3.2km/h 26% 0.00in /  0mm 919.0 W/m2
15:31 85.1 °F /  29.5 °C 44.2 °F /  6.8 °C 29.70in /  1005.6hPa WSW 2.9mph /  4.7km/h 4.0mph /  6.4km/h 24% 0.00in /  0mm 986.0 W/m2
15:37 85.6 °F /  29.8 °C 46.8 °F /  8.2 °C 29.70in /  1005.6hPa West 2.9mph /  4.7km/h 3.0mph /  4.8km/h 26% 0.00in /  0mm 967.0 W/m2
15:43 85.8 °F /  29.9 °C 45.9 °F /  7.7 °C 29.70in /  1005.6hPa West 2.9mph /  4.7km/h 5.0mph /  8km/h 25% 0.00in /  0mm 257.0 W/m2
15:49 85.3 °F /  29.6 °C 45.5 °F /  7.5 °C 29.69in /  1005.3hPa Calm   3.0mph /  4.8km/h 25% 0.00in /  0mm 262.0 W/m2
15:55 84.7 °F /  29.3 °C 43.9 °F /  6.6 °C 29.69in /  1005.3hPa Calm   2.0mph /  3.2km/h 24% 0.00in /  0mm 791.0 W/m2
16:01 84.4 °F /  29.1 °C 44.8 °F /  7.1 °C 29.69in /  1005.3hPa WNW 2.0mph /  3.2km/h 2.0mph /  3.2km/h 25% 0.00in /  0mm 390.0 W/m2
16:07 84.4 °F /  29.1 °C 48.7 °F /  9.3 °C 29.69in /  1005.3hPa WNW 2.9mph /  4.7km/h 3.0mph /  4.8km/h 29% 0.00in /  0mm 287.0 W/m2
16:13 84.6 °F /  29.2 °C 45.9 °F /  7.7 °C 29.69in /  1005.3hPa Calm   3.0mph /  4.8km/h 26% 0.00in /  0mm 907.0 W/m2
16:19 84.9 °F /  29.4 °C 47.1 °F /  8.4 °C 29.69in /  1005.3hPa Calm   6.0mph /  9.7km/h 27% 0.00in /  0mm 795.0 W/m2
16:26 85.3 °F /  29.6 °C 45.5 °F /  7.5 °C 29.69in /  1005.3hPa South 4.9mph /  7.9km/h 9.0mph /  14.5km/h 25% 0.00in /  0mm 782.0 W/m2
16:32 84.7 °F /  29.3 °C 46.0 °F /  7.8 °C 29.69in /  1005.3hPa SSW 2.0mph /  3.2km/h 4.0mph /  6.4km/h 26% 0.00in /  0mm 751.0 W/m2
16:38 85.1 °F /  29.5 °C 46.4 °F /  8 °C 29.69in /  1005.3hPa South 2.9mph /  4.7km/h 6.0mph /  9.7km/h 26% 0.00in /  0mm 738.0 W/m2
16:44 85.1 °F /  29.5 °C 46.4 °F /  8 °C 29.69in /  1005.3hPa SSW 2.9mph /  4.7km/h 7.0mph /  11.3km/h 26% 0.00in /  0mm 686.0 W/m2
16:50 84.9 °F /  29.4 °C 46.2 °F /  7.9 °C 29.69in /  1005.3hPa Calm   6.0mph /  9.7km/h 26% 0.00in /  0mm 726.0 W/m2
16:56 84.9 °F /  29.4 °C 47.1 °F /  8.4 °C 29.69in /  1005.3hPa SW 4.9mph /  7.9km/h 8.0mph /  12.9km/h 27% 0.00in /  0mm 396.0 W/m2
17:02 83.8 °F /  28.8 °C 46.2 °F /  7.9 °C 29.69in /  1005.3hPa WNW 2.9mph /  4.7km/h 5.0mph /  8km/h 27% 0.00in /  0mm 186.0 W/m2
17:08 82.9 °F /  28.3 °C 46.4 °F /  8 °C 29.69in /  1005.3hPa SW 2.9mph /  4.7km/h 7.0mph /  11.3km/h 28% 0.00in /  0mm 174.0 W/m2
17:14 82.0 °F /  27.8 °C 44.8 °F /  7.1 °C 29.69in /  1005.3hPa WNW 0.9mph /  1.4km/h 4.0mph /  6.4km/h 27% 0.00in /  0mm 156.0 W/m2
17:21 81.3 °F /  27.4 °C 46.9 °F /  8.3 °C 29.69in /  1005.3hPa SSW 4.0mph /  6.4km/h 7.0mph /  11.3km/h 30% 0.00in /  0mm 142.0 W/m2
17:27 80.8 °F /  27.1 °C 47.3 °F /  8.5 °C 29.69in /  1005.3hPa Calm   3.0mph /  4.8km/h 31% 0.00in /  0mm 123.0 W/m2
17:33 80.4 °F /  26.9 °C 47.8 °F /  8.8 °C 29.69in /  1005.3hPa SW 0.9mph /  1.4km/h 2.0mph /  3.2km/h 32% 0.00in /  0mm 105.0 W/m2
17:39 80.2 °F /  26.8 °C 46.9 °F /  8.3 °C 29.69in /  1005.3hPa SW 2.0mph /  3.2km/h 4.0mph /  6.4km/h 31% 0.00in /  0mm 97.0 W/m2
17:45 80.1 °F /  26.7 °C 47.5 °F /  8.6 °C 29.69in /  1005.3hPa SSW 2.9mph /  4.7km/h 3.0mph /  4.8km/h 32% 0.00in /  0mm 81.0 W/m2
17:51 79.9 °F /  26.6 °C 46.6 °F /  8.1 °C 29.69in /  1005.3hPa Calm   4.0mph /  6.4km/h 31% 0.00in /  0mm 65.0 W/m2
17:57 79.7 °F /  26.5 °C 48.0 °F /  8.9 °C 29.69in /  1005.3hPa Calm   1.0mph /  1.6km/h 33% 0.00in /  0mm 60.0 W/m2
18:04 79.5 °F /  26.4 °C 47.1 °F /  8.4 °C 29.69in /  1005.3hPa Calm   3.0mph /  4.8km/h 32% 0.00in /  0mm 47.0 W/m2
18:10 79.3 °F /  26.3 °C 48.6 °F /  9.2 °C 29.70in /  1005.6hPa SE 2.0mph /  3.2km/h 3.0mph /  4.8km/h 34% 0.00in /  0mm 47.0 W/m2
18:16 79.2 °F /  26.2 °C 49.1 °F /  9.5 °C 29.70in /  1005.6hPa Calm   1.0mph /  1.6km/h 35% 0.00in /  0mm 42.0 W/m2
18:22 79.0 °F /  26.1 °C 47.5 °F /  8.6 °C 29.70in /  1005.6hPa Calm   1.0mph /  1.6km/h 33% 0.00in /  0mm 44.0 W/m2
18:28 78.6 °F /  25.9 °C 47.8 °F /  8.8 °C 29.70in /  1005.6hPa Calm   1.0mph /  1.6km/h 34% 0.00in /  0mm 42.0 W/m2
18:34 78.4 °F /  25.8 °C 48.6 °F /  9.2 °C 29.70in /  1005.6hPa Calm   1.0mph /  1.6km/h 35% 0.00in /  0mm 33.0 W/m2
18:40 78.3 °F /  25.7 °C 48.4 °F /  9.1 °C 29.70in /  1005.6hPa Calm   3.0mph /  4.8km/h 35% 0.00in /  0mm 26.0 W/m2
18:46 78.1 °F /  25.6 °C 48.9 °F /  9.4 °C 29.70in /  1005.6hPa Calm   1.0mph /  1.6km/h 36% 0.00in /  0mm 25.0 W/m2
18:53 77.7 °F /  25.4 °C 48.6 °F /  9.2 °C 29.71in /  1006hPa SSW 0.9mph /  1.4km/h 2.0mph /  3.2km/h 36% 0.00in /  0mm 30.0 W/m2
18:59 77.7 °F /  25.4 °C 48.6 °F /  9.2 °C 29.71in /  1006hPa South 0.9mph /  1.4km/h 4.0mph /  6.4km/h 36% 0.00in /  0mm 32.0 W/m2
19:05 77.7 °F /  25.4 °C 49.5 °F /  9.7 °C 29.71in /  1006hPa SW 2.9mph /  4.7km/h 5.0mph /  8km/h 37% 0.00in /  0mm 21.0 W/m2
19:11 77.5 °F /  25.3 °C 49.3 °F /  9.6 °C 29.72in /  1006.3hPa Calm   8.0mph /  12.9km/h 37% 0.00in /  0mm 7.0 W/m2
19:17 76.8 °F /  24.9 °C 49.3 °F /  9.6 °C 29.72in /  1006.3hPa SSW 2.0mph /  3.2km/h 3.0mph /  4.8km/h 38% 0.00in /  0mm 5.0 W/m2
19:23 76.5 °F /  24.7 °C 49.6 °F /  9.8 °C 29.72in /  1006.3hPa SSE 0.9mph /  1.4km/h 5.0mph /  8km/h 39% 0.00in /  0mm 0.0 W/m2
19:27 76.1 °F /  24.5 °C 49.3 °F /  9.6 °C 29.72in /  1006.3hPa ESE 0.9mph /  1.4km/h 6.0mph /  9.7km/h 39% 0.00in /  0mm 0.0 W/m2
19:33 75.6 °F /  24.2 °C 48.9 °F /  9.4 °C 29.72in /  1006.3hPa SSW 0.9mph /  1.4km/h 4.0mph /  6.4km/h 39% 0.00in /  0mm 0.0 W/m2
19:40 75.4 °F /  24.1 °C 48.7 °F /  9.3 °C 29.72in /  1006.3hPa SE 2.9mph /  4.7km/h 4.0mph /  6.4km/h 39% 0.00in /  0mm 0.0 W/m2
19:46 75.0 °F /  23.9 °C 49.1 °F /  9.5 °C 29.72in /  1006.3hPa SE 2.9mph /  4.7km/h 3.0mph /  4.8km/h 40% 0.00in /  0mm 0.0 W/m2
19:52 74.8 °F /  23.8 °C 48.2 °F /  9 °C 29.72in /  1006.3hPa SE 2.0mph /  3.2km/h 5.0mph /  8km/h 39% 0.00in /  0mm 0.0 W/m2
19:58 74.5 °F /  23.6 °C 47.8 °F /  8.8 °C 29.72in /  1006.3hPa Calm   4.0mph /  6.4km/h 39% 0.00in /  0mm 0.0 W/m2
20:04 74.3 °F /  23.5 °C 47.7 °F /  8.7 °C 29.73in /  1006.7hPa South 2.0mph /  3.2km/h 6.0mph /  9.7km/h 39% 0.00in /  0mm 0.0 W/m2
20:10 74.1 °F /  23.4 °C 48.2 °F /  9 °C 29.73in /  1006.7hPa South 0.9mph /  1.4km/h 2.0mph /  3.2km/h 40% 0.00in /  0mm 0.0 W/m2
20:16 73.9 °F /  23.3 °C 48.0 °F /  8.9 °C 29.73in /  1006.7hPa South 2.0mph /  3.2km/h 3.0mph /  4.8km/h 40% 0.00in /  0mm 0.0 W/m2
20:22 73.9 °F /  23.3 °C 48.7 °F /  9.3 °C 29.74in /  1007hPa SW 8.1mph /  13km/h 8.1mph /  13km/h 41% 0.00in /  0mm 0.0 W/m2
20:29 73.9 °F /  23.3 °C 48.0 °F /  8.9 °C 29.74in /  1007hPa Calm   9.0mph /  14.5km/h 40% 0.00in /  0mm 0.0 W/m2
20:35 73.9 °F /  23.3 °C 48.0 °F /  8.9 °C 29.74in /  1007hPa SSW 4.9mph /  7.9km/h 7.0mph /  11.3km/h 40% 0.00in /  0mm 0.0 W/m2
20:41 73.9 °F /  23.3 °C 48.0 °F /  8.9 °C 29.75in /  1007.3hPa SSW 2.0mph /  3.2km/h 6.0mph /  9.7km/h 40% 0.00in /  0mm 0.0 W/m2
20:47 73.8 °F /  23.2 °C 48.0 °F /  8.9 °C 29.75in /  1007.3hPa SSW 0.9mph /  1.4km/h 3.0mph /  4.8km/h 40% 0.00in /  0mm 0.0 W/m2
20:53 73.6 °F /  23.1 °C 49.1 °F /  9.5 °C 29.75in /  1007.3hPa SSW 0.9mph /  1.4km/h 7.0mph /  11.3km/h 42% 0.00in /  0mm 0.0 W/m2
20:59 73.4 °F /  23 °C 48.9 °F /  9.4 °C 29.75in /  1007.3hPa South 2.0mph /  3.2km/h 2.0mph /  3.2km/h 42% 0.00in /  0mm 0.0 W/m2
21:05 73.2 °F /  22.9 °C 49.5 °F /  9.7 °C 29.75in /  1007.3hPa Calm   1.0mph /  1.6km/h 43% 0.00in /  0mm 0.0 W/m2
21:11 73.0 °F /  22.8 °C 49.8 °F /  9.9 °C 29.76in /  1007.7hPa SSW 2.0mph /  3.2km/h 2.0mph /  3.2km/h 44% 0.00in /  0mm 0.0 W/m2
21:18 72.9 °F /  22.7 °C 49.6 °F /  9.8 °C 29.76in /  1007.7hPa SSW 2.0mph /  3.2km/h 6.0mph /  9.7km/h 44% 0.00in /  0mm 0.0 W/m2
21:24 72.9 °F /  22.7 °C 50.4 °F /  10.2 °C 29.76in /  1007.7hPa SSW 0.9mph /  1.4km/h 2.0mph /  3.2km/h 45% 0.00in /  0mm 0.0 W/m2
21:30 72.7 °F /  22.6 °C 50.2 °F /  10.1 °C 29.76in /  1007.7hPa Calm   3.0mph /  4.8km/h 45% 0.00in /  0mm 0.0 W/m2
21:36 72.7 °F /  22.6 °C 50.2 °F /  10.1 °C 29.76in /  1007.7hPa SSE 2.9mph /  4.7km/h 4.0mph /  6.4km/h 45% 0.00in /  0mm 0.0 W/m2
21:42 72.3 °F /  22.4 °C 50.4 °F /  10.2 °C 29.77in /  1008hPa SSE 2.9mph /  4.7km/h 4.0mph /  6.4km/h 46% 0.00in /  0mm 0.0 W/m2
21:48 72.1 °F /  22.3 °C 50.2 °F /  10.1 °C 29.77in /  1008hPa SE 2.0mph /  3.2km/h 4.0mph /  6.4km/h 46% 0.00in /  0mm 0.0 W/m2
21:54 72.0 °F /  22.2 °C 50.7 °F /  10.4 °C 29.77in /  1008hPa SSE 0.9mph /  1.4km/h 1.0mph /  1.6km/h 47% 0.00in /  0mm 0.0 W/m2
22:00 72.0 °F /  22.2 °C 51.3 °F /  10.7 °C 29.77in /  1008hPa Calm   1.0mph /  1.6km/h 48% 0.00in /  0mm 0.0 W/m2
22:07 71.8 °F /  22.1 °C 51.1 °F /  10.6 °C 29.78in /  1008.4hPa Calm   2.0mph /  3.2km/h 48% 0.00in /  0mm 0.0 W/m2
22:13 71.6 °F /  22 °C 50.9 °F /  10.5 °C 29.78in /  1008.4hPa Calm     48% 0.00in /  0mm 0.0 W/m2
22:19 71.4 °F /  21.9 °C 51.3 °F /  10.7 °C 29.78in /  1008.4hPa Calm     49% 0.00in /  0mm 0.0 W/m2
22:25 71.4 °F /  21.9 °C 51.3 °F /  10.7 °C 29.78in /  1008.4hPa SE 0.9mph /  1.4km/h 2.0mph /  3.2km/h 49% 0.00in /  0mm 0.0 W/m2
22:31 71.2 °F /  21.8 °C 50.5 °F /  10.3 °C 29.78in /  1008.4hPa SE 0.9mph /  1.4km/h 4.0mph /  6.4km/h 48% 0.00in /  0mm 0.0 W/m2
22:37 71.2 °F /  21.8 °C 50.5 °F /  10.3 °C 29.78in /  1008.4hPa ESE 2.0mph /  3.2km/h 3.0mph /  4.8km/h 48% 0.00in /  0mm 0.0 W/m2
22:43 71.2 °F /  21.8 °C 50.5 °F /  10.3 °C 29.78in /  1008.4hPa SE 0.9mph /  1.4km/h 3.0mph /  4.8km/h 48% 0.00in /  0mm 0.0 W/m2
22:49 71.2 °F /  21.8 °C 50.5 °F /  10.3 °C 29.78in /  1008.4hPa Calm   4.0mph /  6.4km/h 48% 0.00in /  0mm 0.0 W/m2
22:56 71.2 °F /  21.8 °C 50.5 °F /  10.3 °C 29.78in /  1008.4hPa SE 2.9mph /  4.7km/h 4.0mph /  6.4km/h 48% 0.00in /  0mm 0.0 W/m2
23:02 71.4 °F /  21.9 °C 50.2 °F /  10.1 °C 29.78in /  1008.4hPa East 0.9mph /  1.4km/h 4.0mph /  6.4km/h 47% 0.00in /  0mm 0.0 W/m2
23:08 71.4 °F /  21.9 °C 50.7 °F /  10.4 °C 29.78in /  1008.4hPa SE 2.0mph /  3.2km/h 5.0mph /  8km/h 48% 0.00in /  0mm 0.0 W/m2
23:14 71.4 °F /  21.9 °C 50.2 °F /  10.1 °C 29.78in /  1008.4hPa SE 0.9mph /  1.4km/h 4.0mph /  6.4km/h 47% 0.00in /  0mm 0.0 W/m2
23:20 71.4 °F /  21.9 °C 49.6 °F /  9.8 °C 29.78in /  1008.4hPa SSE 2.0mph /  3.2km/h 3.0mph /  4.8km/h 46% 0.00in /  0mm 0.0 W/m2
23:26 71.4 °F /  21.9 °C 49.6 °F /  9.8 °C 29.78in /  1008.4hPa SSE 0.9mph /  1.4km/h 1.0mph /  1.6km/h 46% 0.00in /  0mm 0.0 W/m2
23:32 71.4 °F /  21.9 °C 49.6 °F /  9.8 °C 29.78in /  1008.4hPa SSE 2.0mph /  3.2km/h 3.0mph /  4.8km/h 46% 0.00in /  0mm 0.0 W/m2
23:38 71.4 °F /  21.9 °C 49.6 °F /  9.8 °C 29.78in /  1008.4hPa Calm   2.0mph /  3.2km/h 46% 0.00in /  0mm 0.0 W/m2
23:44 71.4 °F /  21.9 °C 48.9 °F /  9.4 °C 29.78in /  1008.4hPa Calm   2.0mph /  3.2km/h 45% 0.00in /  0mm 0.0 W/m2
23:50 71.2 °F /  21.8 °C 48.7 °F /  9.3 °C 29.78in /  1008.4hPa Calm   1.0mph /  1.6km/h 45% 0.00in /  0mm 0.0 W/m2
23:56 71.2 °F /  21.8 °C 48.7 °F /  9.3 °C 29.79in /  1008.7hPa Calm   2.0mph /  3.2km/h 45% 0.00in /  0mm 0.0 W/m2
Olympia, Windhoek, Namibia
Compliments of Weather Underground - 3 mb